Time;durP1;ratioP1;P1;durP2;ratioP2;P2;SDS_P1;SDS_P2;PMS_P1;PMS_P2;Temp;Humidity;BMP_temperature;BMP_pressure;BME280_temperature;BME280_humidity;BME280_pressure;Samples;Min_cycle;Max_cycle;Signal;HPM_P1;HPM_P2
2023/03/08 00:01:46;;;;;;;7.63;2.92;;;-0.90;99.90;;;;;;5054243;28;20044;-40
2023/03/08 00:04:12;;;;;;;7.20;3.53;;;-0.90;99.90;;;;;;5053017;28;20052;-39
2023/03/08 00:06:37;;;;;;;7.60;3.55;;;-0.90;99.90;;;;;;5054470;28;20048;-41
2023/03/08 00:09:03;;;;;;;5.28;2.20;;;-0.90;99.90;;;;;;5052048;28;20055;-38
2023/03/08 00:11:29;;;;;;;6.30;1.90;;;-1.00;99.90;;;;;;5052880;28;20076;-39
2023/03/08 00:13:56;;;;;;;4.63;1.60;;;-1.00;99.90;;;;;;5054117;28;20041;-40
2023/03/08 00:16:22;;;;;;;5.50;1.67;;;-1.00;99.90;;;;;;5054678;28;20045;-38
2023/03/08 00:18:47;;;;;;;4.45;1.30;;;-0.90;99.90;;;;;;5053291;28;20060;-42
2023/03/08 00:21:15;;;;;;;3.15;0.90;;;-0.90;99.90;;;;;;5053250;28;20053;-41
2023/03/08 00:23:42;;;;;;;7.63;1.45;;;-1.00;99.90;;;;;;5052351;28;20045;-39
2023/03/08 00:26:08;;;;;;;4.30;1.25;;;-0.90;99.90;;;;;;5053997;28;20064;-40
2023/03/08 00:28:34;;;;;;;2.65;1.20;;;-0.90;99.90;;;;;;5054577;28;20054;-40
2023/03/08 00:31:02;;;;;;;4.15;1.10;;;-1.00;99.90;;;;;;5053574;28;20044;-36
2023/03/08 00:33:29;;;;;;;4.72;1.23;;;-0.90;99.90;;;;;;5052636;28;20394;-40
2023/03/08 00:36:03;;;;;;;4.45;1.38;;;-0.90;99.90;;;;;;5054514;28;20040;-35
2023/03/08 00:38:32;;;;;;;5.32;1.90;;;-0.90;99.90;;;;;;5045534;28;20067;-46
2023/03/08 00:40:58;;;;;;;4.63;1.10;;;-0.80;99.90;;;;;;5059092;28;20048;-44
2023/03/08 00:43:24;;;;;;;3.50;1.10;;;-0.90;99.90;;;;;;5059913;28;20048;-41
2023/03/08 00:45:49;;;;;;;5.13;1.15;;;-0.90;99.90;;;;;;5073481;28;20063;-37
2023/03/08 00:48:15;;;;;;;2.25;0.80;;;-0.80;99.90;;;;;;5074023;28;20056;-40
2023/03/08 00:50:41;;;;;;;1.70;0.80;;;-0.90;99.90;;;;;;5073282;28;20433;-39
2023/03/08 00:53:07;;;;;;;2.25;1.00;;;-0.90;99.90;;;;;;5048806;28;20047;-41
2023/03/08 00:55:33;;;;;;;3.15;1.35;;;-0.90;99.90;;;;;;5048246;28;20053;-44
2023/03/08 00:57:59;;;;;;;3.05;0.98;;;-0.90;99.90;;;;;;5059616;28;20052;-42
2023/03/08 01:00:24;;;;;;;6.15;1.10;;;-1.00;99.90;;;;;;5073273;28;20052;-37
2023/03/08 01:02:50;;;;;;;5.90;1.10;;;-1.00;99.90;;;;;;5073105;28;20040;-40
2023/03/08 01:05:16;;;;;;;3.42;0.95;;;-1.00;99.90;;;;;;5072696;28;20540;-43
2023/03/08 01:07:41;;;;;;;6.13;1.10;;;-1.00;99.90;;;;;;5073386;28;20063;-36
2023/03/08 01:10:08;;;;;;;3.35;1.10;;;-1.00;99.90;;;;;;5057943;28;20052;-42
2023/03/08 01:12:34;;;;;;;3.95;1.40;;;-1.00;99.90;;;;;;5072335;28;20050;-39
2023/03/08 01:15:03;;;;;;;3.42;1.42;;;-1.10;99.90;;;;;;5059260;28;20127;-38
2023/03/08 01:17:29;;;;;;;7.57;3.15;;;-1.10;99.90;;;;;;5073111;28;20052;-39
2023/03/08 01:19:55;;;;;;;5.05;2.22;;;-1.10;99.90;;;;;;5071182;28;20181;-39
2023/03/08 01:22:21;;;;;;;4.68;1.92;;;-1.10;99.90;;;;;;5071214;28;20083;-38
2023/03/08 01:24:49;;;;;;;3.97;1.45;;;-1.10;99.90;;;;;;5071649;28;20083;-37
2023/03/08 01:27:39;;;;;;;6.90;1.23;;;-1.20;99.90;;;;;;5073026;28;20105;-41
2023/03/08 01:30:05;;;;;;;6.90;1.38;;;-1.20;99.90;;;;;;5036031;28;20087;-39
2023/03/08 01:32:31;;;;;;;3.67;1.83;;;-1.20;99.90;;;;;;5032215;28;20056;-37
2023/03/08 01:35:02;;;;;;;4.63;2.10;;;-1.20;99.90;;;;;;5048632;28;20121;-38
2023/03/08 01:37:52;;;;;;;3.63;1.60;;;-1.20;99.90;;;;;;5026735;28;20057;-44
2023/03/08 01:40:18;;;;;;;7.05;3.13;;;-1.30;99.90;;;;;;5023155;28;20052;-37
2023/03/08 01:42:44;;;;;;;9.98;3.75;;;-1.20;99.90;;;;;;5049461;28;20186;-39
2023/03/08 01:45:48;;;;;;;7.55;3.20;;;-1.30;99.90;;;;;;5048470;28;20930;-41
2023/03/08 01:48:15;;;;;;;4.68;1.60;;;-1.30;99.90;;;;;;4970039;28;20117;-39
2023/03/08 01:50:44;;;;;;;5.90;1.48;;;-1.30;99.90;;;;;;4969683;28;20072;-38
2023/03/08 01:53:11;;;;;;;3.83;0.98;;;-1.30;99.90;;;;;;4965187;28;20065;-41
2023/03/08 01:55:36;;;;;;;3.00;1.52;;;-1.40;99.90;;;;;;4965026;28;20046;-42
2023/03/08 01:58:02;;;;;;;6.70;1.20;;;-1.40;99.90;;;;;;4951019;28;20050;-39
2023/03/08 02:00:28;;;;;;;1.58;0.70;;;-1.40;99.90;;;;;;4950204;28;20651;-43
2023/03/08 02:02:57;;;;;;;4.72;1.08;;;-1.40;99.90;;;;;;4950873;28;20043;-37
2023/03/08 02:05:23;;;;;;;6.43;0.80;;;-1.40;99.90;;;;;;4950882;28;20069;-37
2023/03/08 02:07:48;;;;;;;5.85;1.20;;;-1.50;99.90;;;;;;5000100;28;20886;-36
2023/03/08 02:10:16;;;;;;;3.45;1.00;;;-1.60;99.90;;;;;;5008404;28;20041;-38
2023/03/08 02:12:42;;;;;;;1.70;0.75;;;-1.60;99.90;;;;;;5009108;28;20089;-37
2023/03/08 02:15:10;;;;;;;2.83;0.90;;;-1.60;99.90;;;;;;5008659;28;20538;-37
2023/03/08 02:17:38;;;;;;;1.80;0.60;;;-1.60;99.90;;;;;;5002459;28;20138;-46
2023/03/08 02:20:15;;;;;;;10.27;1.00;;;-1.70;99.90;;;;;;5005005;28;20111;-37
2023/03/08 02:22:45;;;;;;;4.75;1.00;;;-1.70;99.90;;;;;;5009139;28;20057;-40
2023/03/08 02:25:19;;;;;;;1.83;0.70;;;-1.70;99.90;;;;;;5042074;28;20060;-39
2023/03/08 02:27:45;;;;;;;5.90;0.90;;;-1.60;99.90;;;;;;5072588;28;20055;-42
2023/03/08 02:30:15;;;;;;;3.00;0.82;;;-1.60;99.90;;;;;;5071790;28;20558;-37
2023/03/08 02:32:41;;;;;;;2.53;0.70;;;-1.70;99.90;;;;;;5071365;28;20090;-42
2023/03/08 02:35:07;;;;;;;2.58;0.90;;;-1.60;99.90;;;;;;5071408;28;20052;-41
2023/03/08 02:37:33;;;;;;;8.05;2.28;;;-1.50;99.90;;;;;;5048795;28;20430;-40
2023/03/08 02:39:59;;;;;;;3.63;0.90;;;-1.60;99.90;;;;;;5038053;28;20044;-41
2023/03/08 02:42:24;;;;;;;5.47;2.22;;;-1.50;99.90;;;;;;5050713;28;20049;-38
2023/03/08 02:44:50;;;;;;;3.08;1.13;;;-1.50;99.90;;;;;;5050950;28;20094;-40
2023/03/08 02:47:16;;;;;;;3.55;1.15;;;-1.50;99.90;;;;;;5051929;28;20094;-42
2023/03/08 02:49:41;;;;;;;3.35;0.90;;;-1.40;99.90;;;;;;5052607;28;20044;-36
2023/03/08 02:52:07;;;;;;;5.15;1.05;;;-1.50;99.90;;;;;;5052772;28;20950;-44
2023/03/08 02:54:33;;;;;;;5.78;1.27;;;-1.50;99.90;;;;;;5052915;28;20528;-41
2023/03/08 02:56:58;;;;;;;3.92;0.80;;;-1.50;99.90;;;;;;5050437;28;20091;-37
2023/03/08 02:59:25;;;;;;;2.30;0.85;;;-1.50;99.90;;;;;;5055028;28;20045;-35
2023/03/08 03:01:51;;;;;;;3.22;1.05;;;-1.40;99.90;;;;;;5055772;28;20478;-41
2023/03/08 03:04:17;;;;;;;5.00;1.58;;;-1.50;99.90;;;;;;5054732;28;20044;-44
2023/03/08 03:06:43;;;;;;;2.67;0.80;;;-1.50;99.90;;;;;;5055534;28;20090;-41
2023/03/08 03:09:09;;;;;;;3.28;0.80;;;-1.50;99.90;;;;;;5054712;28;20490;-42
2023/03/08 03:11:35;;;;;;;3.58;0.90;;;-1.50;99.90;;;;;;5056318;28;20098;-35
2023/03/08 03:14:01;;;;;;;10.82;1.85;;;-1.50;99.90;;;;;;5054305;28;20040;-42
2023/03/08 03:16:27;;;;;;;5.85;1.20;;;-1.50;99.90;;;;;;5055457;28;20118;-38
2023/03/08 03:18:55;;;;;;;2.88;1.42;;;-1.50;99.90;;;;;;5053960;28;20048;-37
2023/03/08 03:21:21;;;;;;;5.40;1.20;;;-1.50;99.90;;;;;;5053635;28;20500;-39
2023/03/08 03:23:47;;;;;;;5.45;1.35;;;-1.50;99.90;;;;;;5051950;28;20076;-37
2023/03/08 03:26:15;;;;;;;2.13;1.10;;;-1.50;99.90;;;;;;5054996;28;20143;-36
2023/03/08 03:28:41;;;;;;;4.45;1.48;;;-1.50;99.90;;;;;;5071543;28;20954;-39
2023/03/08 03:31:08;;;;;;;5.88;1.20;;;-1.50;99.90;;;;;;5075734;28;20059;-42
2023/03/08 03:33:34;;;;;;;6.57;1.30;;;-1.60;99.90;;;;;;5075075;28;20051;-37
2023/03/08 03:36:00;;;;;;;7.88;1.70;;;-1.50;99.90;;;;;;5074589;28;20108;-42
2023/03/08 03:38:27;;;;;;;4.57;1.48;;;-1.50;99.90;;;;;;5049478;28;20114;-43
2023/03/08 03:41:00;;;;;;;4.90;1.70;;;-1.60;99.90;;;;;;5054956;28;20052;-38
2023/03/08 03:43:26;;;;;;;;;;;-1.60;99.90;;;;;;5074388;28;20040;-40
2023/03/08 03:45:56;;;;;;;6.35;1.23;;;-1.60;99.90;;;;;;5074546;28;19981;-38
2023/03/08 03:48:22;;;;;;;3.78;1.40;;;-1.70;99.90;;;;;;5072171;28;20787;-39
2023/03/08 03:50:59;;;;;;;4.10;1.30;;;-1.90;99.90;;;;;;5074531;28;20059;-41
2023/03/08 03:53:26;;;;;;;2.47;0.98;;;-1.90;99.90;;;;;;5055882;28;20041;-37
2023/03/08 03:55:52;;;;;;;4.15;1.45;;;-2.00;99.90;;;;;;5049299;28;20119;-35
2023/03/08 03:58:17;;;;;;;3.47;0.95;;;-1.90;99.90;;;;;;5052618;28;20225;-45
2023/03/08 04:00:43;;;;;;;6.78;1.50;;;-2.00;99.90;;;;;;5053550;28;20117;-42
2023/03/08 04:03:09;;;;;;;4.25;1.30;;;-2.00;99.90;;;;;;5073818;28;20151;-41
2023/03/08 04:05:35;;;;;;;4.18;1.15;;;-2.10;99.90;;;;;;5075008;28;20043;-38
2023/03/08 04:08:00;;;;;;;2.15;1.02;;;-2.20;99.90;;;;;;5074553;28;20059;-46
2023/03/08 04:10:26;;;;;;;5.15;1.00;;;-2.20;99.90;;;;;;5072599;28;20212;-36
2023/03/08 04:12:52;;;;;;;3.97;0.80;;;-2.10;99.90;;;;;;5074313;28;20798;-39
2023/03/08 04:15:18;;;;;;;2.40;0.90;;;-2.20;99.90;;;;;;5072821;28;20053;-38
2023/03/08 04:17:44;;;;;;;2.60;0.90;;;-2.20;99.90;;;;;;5073969;28;20040;-41
2023/03/08 04:20:10;;;;;;;2.72;0.85;;;-2.10;99.90;;;;;;5073159;28;20813;-43
2023/03/08 04:22:36;;;;;;;8.07;1.10;;;-2.10;99.90;;;;;;5075109;28;20036;-39
2023/03/08 04:25:02;;;;;;;3.58;1.08;;;-2.00;99.90;;;;;;5073214;28;20052;-38
2023/03/08 04:27:28;;;;;;;7.50;1.10;;;-2.00;99.90;;;;;;5073321;28;20055;-39
2023/03/08 04:29:54;;;;;;;4.05;1.15;;;-2.00;99.90;;;;;;5054239;28;20048;-38
2023/03/08 04:32:19;;;;;;;8.75;3.75;;;-2.00;99.90;;;;;;5073519;28;20384;-41
2023/03/08 04:34:45;;;;;;;3.10;1.10;;;-2.00;99.90;;;;;;5072988;28;20052;-41
2023/03/08 04:37:11;;;;;;;2.92;1.10;;;-2.00;99.90;;;;;;5064584;28;20072;-44
2023/03/08 04:39:37;;;;;;;3.90;0.88;;;-2.00;99.90;;;;;;5048247;28;20119;-40
2023/03/08 04:42:03;;;;;;;4.72;1.13;;;-2.10;99.90;;;;;;5054276;28;20047;-41
2023/03/08 04:44:28;;;;;;;5.43;1.08;;;-2.00;99.90;;;;;;5052228;28;20041;-40
2023/03/08 04:46:54;;;;;;;4.47;1.33;;;-2.10;99.90;;;;;;5061982;28;20433;-40
2023/03/08 04:49:20;;;;;;;8.73;1.40;;;-2.10;99.90;;;;;;5073067;28;20076;-37
2023/03/08 04:51:45;;;;;;;3.90;1.13;;;-2.10;99.90;;;;;;5073911;28;20082;-38
2023/03/08 04:54:11;;;;;;;3.05;1.02;;;-2.10;99.90;;;;;;5063229;28;20075;-39
2023/03/08 04:56:37;;;;;;;2.97;0.95;;;-2.10;99.90;;;;;;5064979;28;20170;-45
2023/03/08 04:59:03;;;;;;;4.20;1.58;;;-2.10;99.90;;;;;;5072793;28;20048;-38
2023/03/08 05:01:29;;;;;;;4.60;1.10;;;-2.10;99.90;;;;;;5073528;28;20079;-42
2023/03/08 05:03:55;;;;;;;2.80;1.05;;;-2.10;99.90;;;;;;5072813;28;20068;-39
2023/03/08 05:06:22;;;;;;;6.60;1.20;;;-2.10;99.90;;;;;;5073573;28;20303;-35
2023/03/08 05:08:48;;;;;;;4.22;0.93;;;-2.10;99.90;;;;;;5072547;28;20088;-38
2023/03/08 05:11:18;;;;;;;3.88;0.90;;;-2.10;99.90;;;;;;5073714;28;20221;-35
2023/03/08 05:13:44;;;;;;;3.42;1.00;;;-2.00;99.90;;;;;;5058229;28;20093;-38
2023/03/08 05:16:10;;;;;;;5.07;1.35;;;-2.10;99.90;;;;;;5073219;28;20127;-36
2023/03/08 05:18:36;;;;;;;3.67;1.02;;;-2.10;99.90;;;;;;5073134;28;20063;-46
2023/03/08 05:21:09;;;;;;;3.20;1.17;;;-2.10;99.90;;;;;;5072241;28;20165;-42
2023/03/08 05:23:34;;;;;;;2.80;1.42;;;-2.10;99.90;;;;;;5073189;28;20062;-40
2023/03/08 05:26:02;;;;;;;6.53;1.52;;;-2.10;99.90;;;;;;5072859;28;20044;-36
2023/03/08 05:28:30;;;;;;;2.97;1.60;;;-2.10;99.90;;;;;;5071061;28;20452;-40
2023/03/08 05:31:04;;;;;;;6.13;1.40;;;-2.10;99.90;;;;;;5073140;28;20555;-39
2023/03/08 05:33:31;;;;;;;3.75;1.33;;;-2.10;99.90;;;;;;5071189;28;20040;-36
2023/03/08 05:35:56;;;;;;;4.38;1.30;;;-2.00;99.90;;;;;;5071418;28;20069;-36
2023/03/08 05:38:23;;;;;;;4.00;1.95;;;-2.20;99.90;;;;;;5035862;28;20040;-40
2023/03/08 05:40:49;;;;;;;3.42;1.20;;;-2.20;99.90;;;;;;5052661;28;20083;-35
2023/03/08 05:43:16;;;;;;;4.75;1.40;;;-2.20;99.90;;;;;;5065531;28;20041;-40
2023/03/08 05:45:42;;;;;;;5.22;1.98;;;-2.30;99.90;;;;;;5052289;28;20123;-38
2023/03/08 05:48:08;;;;;;;5.72;2.97;;;-2.30;99.90;;;;;;5052854;28;20881;-41
2023/03/08 05:50:37;;;;;;;5.53;3.15;;;-2.30;99.90;;;;;;5052956;28;20055;-37
2023/03/08 05:53:02;;;;;;;6.22;3.03;;;-2.30;99.90;;;;;;5060674;28;20047;-39
2023/03/08 05:55:28;;;;;;;6.65;2.97;;;-2.30;99.90;;;;;;5065454;28;20045;-40
2023/03/08 05:57:54;;;;;;;6.72;3.13;;;-2.20;99.90;;;;;;5051335;28;20127;-37
2023/03/08 06:00:20;;;;;;;6.43;3.13;;;-2.30;99.90;;;;;;5052074;28;20051;-35
2023/03/08 06:02:45;;;;;;;7.78;3.28;;;-2.20;99.90;;;;;;5070740;28;20108;-39
2023/03/08 06:05:11;;;;;;;5.70;3.63;;;-2.20;99.90;;;;;;5060248;28;20141;-39
2023/03/08 06:07:36;;;;;;;5.15;3.85;;;-2.20;99.90;;;;;;5071053;28;20147;-42
2023/03/08 06:10:03;;;;;;;7.53;4.13;;;-2.10;99.90;;;;;;5071034;28;20052;-42
2023/03/08 06:12:28;;;;;;;7.97;5.43;;;-2.20;99.90;;;;;;5073064;28;20055;-40
2023/03/08 06:14:54;;;;;;;12.07;7.88;;;-2.10;99.90;;;;;;5072358;28;20043;-38
2023/03/08 06:17:19;;;;;;;14.48;10.30;;;-2.20;99.90;;;;;;5070684;28;20051;-35
2023/03/08 06:19:45;;;;;;;13.65;8.60;;;-2.10;99.90;;;;;;5072522;28;20044;-37
2023/03/08 06:22:11;;;;;;;14.07;9.18;;;-2.10;99.90;;;;;;5072122;28;20121;-40
2023/03/08 06:24:37;;;;;;;10.00;8.95;;;-2.00;99.90;;;;;;5061959;28;20048;-44
2023/03/08 06:27:03;;;;;;;11.45;9.27;;;-2.10;99.90;;;;;;5074584;28;20847;-42
2023/03/08 06:29:28;;;;;;;12.35;10.13;;;-2.00;99.90;;;;;;5076144;28;20044;-40
2023/03/08 06:31:54;;;;;;;12.98;8.75;;;-2.00;99.90;;;;;;5075971;28;20124;-35
2023/03/08 06:34:20;;;;;;;10.05;5.75;;;-2.00;99.90;;;;;;5075409;28;20121;-40
2023/03/08 06:36:46;;;;;;;8.65;5.18;;;-1.90;99.90;;;;;;5069587;28;20052;-38
2023/03/08 06:39:11;;;;;;;9.05;6.05;;;-2.00;99.90;;;;;;5051698;28;20052;-40
2023/03/08 06:41:37;;;;;;;9.48;7.20;;;-1.90;99.90;;;;;;5060453;28;20121;-42
2023/03/08 06:44:03;;;;;;;10.13;6.70;;;-1.60;99.90;;;;;;5057485;28;20486;-38
2023/03/08 06:46:28;;;;;;;9.30;7.63;;;-1.30;99.90;;;;;;5059384;28;20056;-42
2023/03/08 06:48:54;;;;;;;11.13;7.90;;;-1.10;99.90;;;;;;5056145;28;20056;-38
2023/03/08 06:51:20;;;;;;;10.65;8.50;;;-0.80;99.90;;;;;;5061347;28;20047;-35
2023/03/08 06:53:47;;;;;;;9.70;8.07;;;-0.50;99.90;;;;;;5053950;28;20125;-40
2023/03/08 06:56:14;;;;;;;8.38;6.68;;;-0.20;99.90;;;;;;5050733;28;20059;-40
2023/03/08 06:58:41;;;;;;;8.95;6.47;;;-0.10;99.90;;;;;;5054908;28;20049;-36
2023/03/08 07:01:08;;;;;;;8.98;6.40;;;0.20;99.90;;;;;;5055945;28;20056;-44
2023/03/08 07:03:34;;;;;;;9.43;6.00;;;0.20;99.90;;;;;;5054224;28;20063;-38
2023/03/08 07:06:02;;;;;;;7.07;6.22;;;0.40;99.90;;;;;;5053699;28;20044;-37
2023/03/08 07:08:28;;;;;;;9.05;6.22;;;0.50;99.90;;;;;;5054757;28;20052;-38
2023/03/08 07:10:54;;;;;;;10.38;7.22;;;0.50;99.90;;;;;;5055661;28;20091;-38
2023/03/08 07:13:22;;;;;;;9.73;6.32;;;0.60;99.90;;;;;;5067907;28;20840;-37
2023/03/08 07:15:49;;;;;;;8.48;6.57;;;0.70;99.90;;;;;;5074320;28;20485;-40
2023/03/08 07:18:14;;;;;;;8.57;6.47;;;0.80;99.90;;;;;;5061761;28;20136;-38
2023/03/08 07:20:40;;;;;;;8.75;6.57;;;0.70;99.90;;;;;;5069155;28;20040;-39
2023/03/08 07:23:05;;;;;;;7.60;6.57;;;0.80;99.90;;;;;;5057143;28;20110;-42
2023/03/08 07:25:31;;;;;;;7.65;6.68;;;0.70;99.90;;;;;;5055647;28;20496;-39
2023/03/08 07:28:00;;;;;;;10.98;6.72;;;0.60;99.90;;;;;;5054948;28;20063;-43
2023/03/08 07:30:26;;;;;;;9.43;6.63;;;0.50;99.90;;;;;;5057014;28;20822;-40
2023/03/08 07:32:52;;;;;;;8.95;7.05;;;0.40;99.90;;;;;;5055116;28;20870;-40
2023/03/08 07:35:18;;;;;;;11.45;7.30;;;0.40;99.90;;;;;;5054473;28;20114;-39
2023/03/08 07:37:45;;;;;;;10.00;7.28;;;0.30;99.90;;;;;;5054007;28;20048;-38
2023/03/08 07:40:13;;;;;;;7.97;7.18;;;0.30;99.90;;;;;;5051147;28;20114;-41
2023/03/08 07:42:39;;;;;;;10.48;7.43;;;0.40;99.90;;;;;;5067067;28;20638;-43
2023/03/08 07:45:05;;;;;;;7.72;6.47;;;0.50;99.90;;;;;;5075215;28;20052;-38
2023/03/08 07:47:31;;;;;;;11.50;7.32;;;0.60;99.90;;;;;;5061245;28;20121;-38
2023/03/08 07:49:57;;;;;;;9.75;7.10;;;0.60;99.90;;;;;;5065563;28;20044;-40
2023/03/08 07:52:27;;;;;;;8.80;6.50;;;0.70;99.90;;;;;;5049637;28;20057;-39
2023/03/08 07:54:53;;;;;;;8.35;6.30;;;0.80;99.90;;;;;;5040835;28;20060;-39
2023/03/08 07:57:18;;;;;;;7.38;6.65;;;0.80;99.90;;;;;;5049612;28;20485;-38
2023/03/08 07:59:44;;;;;;;9.27;6.55;;;0.90;99.90;;;;;;5061339;28;20194;-40
2023/03/08 08:02:12;;;;;;;10.65;6.47;;;1.00;99.90;;;;;;5073938;28;20105;-38
2023/03/08 08:04:38;;;;;;;8.82;6.72;;;1.00;99.90;;;;;;5074015;28;20060;-39
2023/03/08 08:07:04;;;;;;;7.53;6.72;;;1.10;99.90;;;;;;5055935;28;20086;-42
2023/03/08 08:09:29;;;;;;;14.07;7.22;;;1.10;99.90;;;;;;5074587;28;20052;-40
2023/03/08 08:11:55;;;;;;;6.75;5.90;;;1.20;99.90;;;;;;5073489;28;20147;-41
2023/03/08 08:14:21;;;;;;;7.32;5.43;;;1.20;99.90;;;;;;5054120;28;20047;-43
2023/03/08 08:16:46;;;;;;;7.55;6.03;;;1.10;99.90;;;;;;5054851;28;20111;-45
2023/03/08 08:19:13;;;;;;;10.15;5.95;;;1.20;99.90;;;;;;5071825;28;20047;-40
2023/03/08 08:21:40;;;;;;;7.18;6.47;;;1.20;99.90;;;;;;5074143;28;20105;-43
2023/03/08 08:24:06;;;;;;;8.38;6.53;;;1.20;99.90;;;;;;5074314;28;20044;-42
2023/03/08 08:26:32;;;;;;;7.90;6.50;;;1.30;99.90;;;;;;5061489;28;20052;-38
2023/03/08 08:28:58;;;;;;;7.32;6.43;;;1.40;99.90;;;;;;5073478;28;20110;-39
2023/03/08 08:31:29;;;;;;;16.52;7.43;;;1.40;99.90;;;;;;5072881;28;20474;-39
2023/03/08 08:33:55;;;;;;;9.63;7.07;;;1.50;99.90;;;;;;5073263;28;20976;-43
2023/03/08 08:36:21;;;;;;;7.63;6.57;;;1.50;99.90;;;;;;5071829;28;20113;-36
2023/03/08 08:38:48;;;;;;;7.78;6.38;;;1.60;99.90;;;;;;5049412;28;20044;-39
2023/03/08 08:41:16;;;;;;;11.68;7.20;;;1.60;99.90;;;;;;5055141;28;20546;-37
2023/03/08 08:43:43;;;;;;;7.00;6.30;;;1.70;99.90;;;;;;5073124;28;20717;-39
2023/03/08 08:46:09;;;;;;;15.68;10.00;;;1.80;99.90;;;;;;5070899;28;20140;-43
2023/03/08 08:48:37;;;;;;;12.90;8.52;;;1.80;99.90;;;;;;5049943;28;20082;-45
2023/03/08 08:51:03;;;;;;;14.10;8.63;;;1.90;99.90;;;;;;5050841;28;20075;-41
2023/03/08 08:53:29;;;;;;;10.95;7.47;;;2.00;99.90;;;;;;5048846;28;20128;-37
2023/03/08 08:55:56;;;;;;;10.85;7.43;;;2.00;99.90;;;;;;5048032;28;20690;-38
2023/03/08 08:58:22;;;;;;;9.13;6.78;;;2.10;99.90;;;;;;5052277;28;20059;-42
2023/03/08 09:00:47;;;;;;;7.75;6.18;;;2.20;99.90;;;;;;5050756;28;20055;-46
2023/03/08 09:03:13;;;;;;;8.68;6.88;;;2.20;99.90;;;;;;5052808;28;20044;-41
2023/03/08 09:05:41;;;;;;;9.55;7.13;;;2.40;99.90;;;;;;5069667;28;20040;-40
2023/03/08 09:08:08;;;;;;;7.55;6.13;;;2.40;99.90;;;;;;5073209;28;20044;-42
2023/03/08 09:10:35;;;;;;;7.50;6.13;;;2.40;99.90;;;;;;5074228;28;20044;-39
2023/03/08 09:13:01;;;;;;;6.15;5.22;;;2.50;99.90;;;;;;5071713;28;20048;-40
2023/03/08 09:15:27;;;;;;;6.13;4.97;;;2.60;99.90;;;;;;5072770;28;20342;-45
2023/03/08 09:17:52;;;;;;;6.00;4.47;;;2.70;99.90;;;;;;5072842;28;20086;-41
2023/03/08 09:20:19;;;;;;;7.35;4.97;;;2.70;99.90;;;;;;5071727;28;20056;-38
2023/03/08 09:22:44;;;;;;;7.05;5.28;;;2.80;99.90;;;;;;5072691;28;20047;-35
2023/03/08 09:25:11;;;;;;;5.55;4.95;;;2.90;99.90;;;;;;5072996;28;20047;-40
2023/03/08 09:27:39;;;;;;;6.45;4.65;;;2.80;99.90;;;;;;5073632;28;20091;-45
2023/03/08 09:30:08;;;;;;;6.50;5.32;;;2.90;99.90;;;;;;5072945;28;20056;-40
2023/03/08 09:32:34;;;;;;;9.15;4.95;;;3.00;99.90;;;;;;5073535;28;20123;-39
2023/03/08 09:35:00;;;;;;;7.50;5.18;;;3.10;99.90;;;;;;5071373;28;20048;-36
2023/03/08 09:37:25;;;;;;;6.85;4.72;;;3.10;99.90;;;;;;5060177;28;20071;-39
2023/03/08 09:39:51;;;;;;;6.72;3.88;;;3.10;99.90;;;;;;5047844;28;20455;-44
2023/03/08 09:42:22;;;;;;;4.70;4.13;;;3.20;99.90;;;;;;5053054;28;20143;-43
2023/03/08 09:45:21;;;;;;;7.63;4.68;;;3.30;99.90;;;;;;5052005;28;20454;-41
2023/03/08 09:48:10;;;;;;;5.05;4.47;;;3.30;99.90;;;;;;5052160;28;20056;-40
2023/03/08 09:50:50;;;;;;;6.22;3.50;;;3.40;99.90;;;;;;5057752;28;20084;-44
2023/03/08 09:53:20;;;;;;;5.97;4.15;;;3.50;99.90;;;;;;5050855;28;20075;-43
2023/03/08 09:56:23;;;;;;;6.55;4.22;;;3.60;99.90;;;;;;5056808;28;20075;-43
2023/03/08 09:59:11;;;;;;;7.20;4.28;;;3.70;99.90;;;;;;5051411;28;20056;-43
2023/03/08 10:02:12;;;;;;;6.80;4.05;;;3.90;99.90;;;;;;5053380;28;20052;-47
2023/03/08 10:05:10;;;;;;;6.45;4.22;;;4.00;99.90;;;;;;5052487;28;20056;-45
2023/03/08 10:07:44;;;;;;;5.88;3.55;;;4.10;99.90;;;;;;5035509;28;20491;-47
2023/03/08 10:10:22;;;;;;;6.32;3.00;;;4.10;99.90;;;;;;5052214;28;20127;-36
2023/03/08 10:13:06;;;;;;;7.75;3.17;;;4.10;99.90;;;;;;5051814;28;20046;-43
2023/03/08 10:15:40;;;;;;;6.10;3.45;;;4.20;99.90;;;;;;5052284;28;20083;-43
2023/03/08 10:18:16;;;;;;;6.78;3.40;;;4.20;99.90;;;;;;5065209;28;20097;-46
2023/03/08 10:20:42;;;;;;;5.13;3.40;;;4.30;99.90;;;;;;5073092;28;20058;-44
2023/03/08 10:23:16;;;;;;;7.57;3.67;;;4.30;99.90;;;;;;5071464;28;20048;-43
2023/03/08 10:25:43;;;;;;;4.68;3.38;;;4.40;99.90;;;;;;5072369;28;20066;-44
2023/03/08 10:28:21;;;;;;;5.47;2.85;;;4.40;99.90;;;;;;5068673;28;20417;-44
2023/03/08 10:30:52;;;;;;;5.03;2.42;;;4.50;99.90;;;;;;5062947;28;20147;-45
2023/03/08 10:33:20;;;;;;;4.57;1.70;;;4.60;99.90;;;;;;5071784;28;20074;-44
2023/03/08 10:35:53;;;;;;;5.40;2.03;;;4.60;99.90;;;;;;5072316;28;20055;-40
2023/03/08 10:38:19;;;;;;;3.65;1.70;;;4.70;99.90;;;;;;5035309;28;20503;-38
2023/03/08 10:40:45;;;;;;;2.53;1.73;;;4.60;99.90;;;;;;5050403;28;20063;-36
2023/03/08 10:43:35;;;;;;;6.18;1.25;;;4.80;99.90;;;;;;5055568;28;20062;-41
2023/03/08 10:46:04;;;;;;;3.58;1.17;;;4.80;99.90;;;;;;5044791;28;20068;-41
2023/03/08 10:48:30;;;;;;;3.70;1.55;;;4.80;99.90;;;;;;5071535;28;20048;-39
2023/03/08 10:51:01;;;;;;;5.63;1.58;;;4.90;99.90;;;;;;5071400;28;20223;-44
2023/03/08 10:53:28;;;;;;;3.63;1.92;;;4.90;99.90;;;;;;5061072;28;20348;-37
2023/03/08 10:55:55;;;;;;;3.05;1.80;;;4.90;99.90;;;;;;5059870;28;20163;-42
2023/03/08 10:58:37;;;;;;;3.20;1.75;;;4.90;99.90;;;;;;5051397;28;20048;-42
2023/03/08 11:01:22;;;;;;;8.35;2.80;;;5.00;99.90;;;;;;5069773;28;20562;-39
2023/03/08 11:04:03;;;;;;;3.75;1.45;;;5.10;99.90;;;;;;5070725;28;20059;-45
2023/03/08 11:06:29;;;;;;;2.83;1.40;;;5.20;99.90;;;;;;5072112;28;20339;-40
2023/03/08 11:09:01;;;;;;;2.90;1.50;;;5.30;99.90;;;;;;5070192;28;20087;-41
2023/03/08 11:11:27;;;;;;;2.38;1.25;;;5.30;99.90;;;;;;5074441;28;20055;-39
2023/03/08 11:13:53;;;;;;;3.17;1.20;;;5.30;99.90;;;;;;5071234;28;20044;-40
2023/03/08 11:16:40;;;;;;;3.25;1.90;;;5.30;99.90;;;;;;5065269;28;20418;-40
2023/03/08 11:19:25;;;;;;;3.10;1.50;;;5.30;99.90;;;;;;5042345;28;20056;-44
2023/03/08 11:22:06;;;;;;;4.90;1.70;;;5.30;99.90;;;;;;5073770;28;20159;-41
2023/03/08 11:24:34;;;;;;;3.08;1.23;;;5.30;99.90;;;;;;5073308;28;20052;-39
2023/03/08 11:27:15;;;;;;;2.63;1.10;;;5.30;99.90;;;;;;5075021;28;20082;-40
2023/03/08 11:29:53;;;;;;;2.92;1.40;;;5.30;99.90;;;;;;5074458;28;20417;-36
2023/03/08 11:32:37;;;;;;;3.00;1.63;;;5.30;99.90;;;;;;5074839;28;20497;-39
2023/03/08 11:35:23;;;;;;;3.38;1.40;;;5.30;99.90;;;;;;5075008;28;20053;-43
2023/03/08 11:38:17;;;;;;;3.03;1.70;;;5.20;99.90;;;;;;5059572;28;20067;-46
2023/03/08 11:41:04;;;;;;;4.68;2.38;;;5.20;99.90;;;;;;5045401;28;20131;-38
2023/03/08 11:43:36;;;;;;;4.32;1.58;;;5.30;99.90;;;;;;5073944;28;20044;-41
2023/03/08 11:46:26;;;;;;;3.45;1.20;;;5.30;99.90;;;;;;5074370;28;20048;-40
2023/03/08 11:49:02;;;;;;;1.92;1.05;;;5.40;99.90;;;;;;5073797;28;20044;-40
2023/03/08 11:52:06;;;;;;;2.42;1.00;;;5.50;99.90;;;;;;5074600;28;20039;-39
2023/03/08 11:54:52;;;;;;;2.70;0.93;;;5.50;99.90;;;;;;5083119;28;20106;-40
2023/03/08 11:57:18;;;;;;;2.15;1.10;;;5.40;99.90;;;;;;5048900;28;20057;-46
2023/03/08 11:59:59;;;;;;;3.33;1.17;;;5.40;99.90;;;;;;5060838;28;20409;-39
2023/03/08 12:02:29;;;;;;;9.40;3.47;;;5.30;99.90;;;;;;5073693;28;20383;-39
2023/03/08 12:05:19;;;;;;;4.05;1.95;;;5.20;99.90;;;;;;5074505;28;20040;-39
2023/03/08 12:08:01;;;;;;;2.63;1.23;;;5.30;99.90;;;;;;5072518;28;20044;-40
2023/03/08 12:10:53;;;;;;;3.70;1.75;;;5.20;99.90;;;;;;5056466;28;20159;-40
2023/03/08 12:13:45;;;;;;;3.92;2.00;;;5.30;99.90;;;;;;5053447;28;20040;-40
2023/03/08 12:16:43;;;;;;;2.40;1.27;;;5.30;99.90;;;;;;5063302;28;20047;-43
2023/03/08 12:19:39;;;;;;;6.72;2.13;;;5.30;99.90;;;;;;5034417;28;20056;-45
2023/03/08 12:22:20;;;;;;;7.13;2.85;;;5.40;99.90;;;;;;5015645;28;20060;-38
2023/03/08 12:25:06;;;;;;;4.65;2.30;;;5.50;99.90;;;;;;5043762;28;20795;-43
2023/03/08 12:27:43;;;;;;;4.28;1.63;;;5.50;99.90;;;;;;5050435;28;20119;-42
2023/03/08 12:30:26;;;;;;;3.00;1.60;;;5.60;99.90;;;;;;5033437;28;20578;-44
2023/03/08 12:32:54;;;;;;;2.53;1.10;;;5.60;99.90;;;;;;5033174;28;20875;-39
2023/03/08 12:35:33;;;;;;;3.25;1.10;;;5.60;99.90;;;;;;5016639;28;20056;-39
2023/03/08 12:38:14;;;;;;;4.30;1.10;;;5.60;99.90;;;;;;5021261;28;20384;-41
2023/03/08 12:40:46;;;;;;;3.17;1.27;;;5.40;99.90;;;;;;5029587;28;20129;-38
2023/03/08 12:43:20;;;;;;;3.45;1.10;;;5.40;99.90;;;;;;5046811;28;20056;-40
2023/03/08 12:45:47;;;;;;;2.03;1.33;;;5.30;99.90;;;;;;5033759;28;20087;-41
2023/03/08 12:48:20;;;;;;;2.40;1.20;;;5.40;99.90;;;;;;5049322;28;20044;-40
2023/03/08 12:51:22;;;;;;;2.97;1.30;;;5.40;99.90;;;;;;5050393;28;20063;-42
2023/03/08 12:53:51;;;;;;;2.30;1.40;;;5.30;99.90;;;;;;5027964;28;20045;-42
2023/03/08 12:56:31;;;;;;;3.78;1.40;;;5.20;99.90;;;;;;5037517;28;20064;-37
2023/03/08 12:59:16;;;;;;;3.22;1.50;;;5.10;99.90;;;;;;5053182;28;20055;-42
2023/03/08 13:01:55;;;;;;;2.10;1.20;;;5.00;99.90;;;;;;5049536;28;20896;-42
2023/03/08 13:04:38;;;;;;;3.55;1.70;;;5.00;99.90;;;;;;5052748;28;20151;-45